Aérodrome :
LOGIN :

S'inscrire | Disclaimer

   EN    FR    IT 

 










Légende :    VFR   VFR Marginal   IFR   IFR Intensif   IFR Très Intensif
Visi : 
Plafond : 
>= 8 km
>= 3000ft
5 à 8 km
1000 à 3000 ft
1500m à 5 km
500 à 1000 ft
800 à 1500m
200 à 500 ft
< 800m
< 200 ft
Symboles :   Orages  Brouillard  Fortes neiges  Fortes précipitations  Vent > 20 kt
SIGMETs :   Divers  Orages  Givrage  Turbulence  Onde Orograph.  Cendres Volcan.






- Altitude de l'aérodrome : 697 ft
- Code IATA : PEG


LIRZ - San Edigio Perugia

DERNIER METAR :
  • 251920Z AUTO VRB03KT 9999 FEW120/// 22/08 Q1015

METARs EXPIRÉS :
  • 251850Z AUTO 22004KT 9999 NCD 23/09 Q1015
  • 251820Z AUTO 18003KT 9999 NCD 25/08 Q1014
  • 251750Z AUTO 19006KT 9999 NCD 27/08 Q1014
  • 251720Z AUTO 22005KT 160V240 9999 NCD 27/09 Q1014
  • 251650Z AUTO 22006KT 9999 BKN130/// 29/08 Q1013

TAF AMD TAF LIRZ
Valide du 25 à 18h jusqu'au 26 à 18h UTC


251729Z 2518/2618 23012KT 9999 SCT030
BECMG 2518/2520 VRB05KT



MET'MAP, la Météo Aéronautique d'un coup d'oeil ! - Copyright ORBIFLY Décembre 2007 - Disclaimer

ORBIFLY MET'MAP TEAM :

Programmation & Développement : Alexandra Zaïnal
Sur une idée originale de : Baudouin d'Aumeries
Soutien technique & logistique : Manuel Goepfert
Assistance : Marc-Olivier Méhu

Contact : metmap@orbifly.com




SOURCES & CREDITS :

   NOAA